Time;durP1;ratioP1;P1;durP2;ratioP2;P2;SDS_P1;SDS_P2;PMS_P1;PMS_P2;Temp;Humidity;BMP_temperature;BMP_pressure;BME280_temperature;BME280_humidity;BME280_pressure;Samples;Min_cycle;Max_cycle;Signal;HPM_P1;HPM_P2
2022/07/09 00:01:39;;;;;;;2.97;2.70;;;24.90;42.40;;;;;;5028330;28;20447;-47
2022/07/09 00:04:05;;;;;;;4.00;2.97;;;24.90;42.30;;;;;;5030136;28;20240;-47
2022/07/09 00:06:31;;;;;;;3.53;3.07;;;24.90;42.30;;;;;;5027580;28;20209;-46
2022/07/09 00:08:58;;;;;;;3.03;2.83;;;24.90;42.40;;;;;;5019595;28;20303;-47
2022/07/09 00:11:23;;;;;;;3.53;3.07;;;24.90;42.50;;;;;;5025573;28;20448;-48
2022/07/09 00:13:49;;;;;;;4.40;2.63;;;24.80;42.40;;;;;;5026856;28;20454;-47
2022/07/09 00:16:15;;;;;;;3.47;2.93;;;24.80;42.60;;;;;;5024333;28;20646;-46
2022/07/09 00:18:40;;;;;;;7.30;3.87;;;24.70;42.80;;;;;;5029090;28;20228;-46
2022/07/09 00:21:06;;;;;;;3.30;2.83;;;24.70;42.90;;;;;;5026433;28;20189;-46
2022/07/09 00:23:33;;;;;;;6.40;3.27;;;24.60;42.90;;;;;;5023681;28;20194;-46
2022/07/09 00:25:59;;;;;;;2.90;2.70;;;24.70;42.50;;;;;;5024289;28;20633;-50
2022/07/09 00:28:24;;;;;;;8.83;3.80;;;24.60;42.60;;;;;;5022964;28;20450;-47
2022/07/09 00:30:50;;;;;;;4.60;3.53;;;24.70;42.60;;;;;;5026737;28;20221;-50
2022/07/09 00:33:15;;;;;;;3.90;3.30;;;24.70;42.60;;;;;;5028108;28;20269;-51
2022/07/09 00:35:41;;;;;;;4.77;3.10;;;24.60;42.90;;;;;;5028376;28;20197;-46
2022/07/09 00:38:07;;;;;;;3.23;2.93;;;24.50;42.70;;;;;;5023482;28;20213;-47
2022/07/09 00:40:34;;;;;;;4.40;3.07;;;24.50;42.90;;;;;;5029245;28;20269;-46
2022/07/09 00:43:00;;;;;;;3.27;2.97;;;24.40;43.00;;;;;;5022098;28;20197;-45
2022/07/09 00:45:26;;;;;;;4.17;3.37;;;24.30;42.90;;;;;;5021416;28;20438;-44
2022/07/09 00:47:51;;;;;;;3.63;3.17;;;24.30;43.30;;;;;;5023175;28;20213;-46
2022/07/09 00:50:18;;;;;;;3.20;2.90;;;24.20;43.40;;;;;;5024172;28;20947;-44
2022/07/09 00:52:44;;;;;;;4.57;2.80;;;24.10;43.80;;;;;;5027086;28;20652;-44
2022/07/09 00:55:11;;;;;;;3.57;3.00;;;24.10;44.50;;;;;;5019535;28;20440;-48
2022/07/09 00:57:38;;;;;;;3.50;2.93;;;24.00;44.00;;;;;;5023375;28;20188;-46
2022/07/09 01:00:04;;;;;;;4.33;3.00;;;23.90;44.10;;;;;;5024013;28;20448;-45
2022/07/09 01:02:30;;;;;;;3.10;2.67;;;23.70;44.30;;;;;;5023536;28;20444;-44
2022/07/09 01:04:56;;;;;;;3.30;3.00;;;23.60;44.80;;;;;;5027896;28;20479;-44
2022/07/09 01:07:21;;;;;;;3.37;2.90;;;23.60;45.00;;;;;;5028781;28;20200;-49
2022/07/09 01:09:47;;;;;;;2.90;2.60;;;23.50;44.90;;;;;;5022975;28;20232;-45
2022/07/09 01:12:12;;;;;;;6.53;3.50;;;23.50;45.40;;;;;;5023283;28;20196;-49
2022/07/09 01:14:38;;;;;;;3.40;3.10;;;23.50;45.60;;;;;;5024090;28;20232;-44
2022/07/09 01:17:05;;;;;;;3.83;2.80;;;23.50;45.60;;;;;;5027786;28;20268;-46
2022/07/09 01:19:32;;;;;;;3.40;2.80;;;23.60;45.40;;;;;;5038518;28;20277;-44
2022/07/09 01:21:59;;;;;;;6.30;3.10;;;23.60;45.10;;;;;;5020773;28;20456;-48
2022/07/09 01:24:25;;;;;;;3.03;2.83;;;23.70;44.90;;;;;;5019262;28;20446;-44
2022/07/09 01:26:53;;;;;;;3.30;3.00;;;23.70;45.00;;;;;;5026134;28;20444;-45
2022/07/09 01:29:19;;;;;;;10.10;6.10;;;23.80;44.90;;;;;;5025723;28;20447;-45
2022/07/09 01:31:45;;;;;;;6.47;4.23;;;23.80;44.80;;;;;;5022002;28;20446;-45
2022/07/09 01:34:10;;;;;;;4.70;3.40;;;23.90;44.70;;;;;;5024644;28;20485;-47
2022/07/09 01:36:36;;;;;;;6.13;3.90;;;23.80;44.30;;;;;;5030122;28;20279;-45
2022/07/09 01:39:02;;;;;;;5.07;3.20;;;23.60;44.90;;;;;;5027293;28;20271;-44
2022/07/09 01:41:28;;;;;;;4.87;3.73;;;23.70;44.90;;;;;;5030728;28;20201;-46
2022/07/09 01:43:53;;;;;;;3.20;3.00;;;23.70;44.80;;;;;;5030462;28;20300;-47
2022/07/09 01:46:19;;;;;;;3.83;3.10;;;23.80;44.80;;;;;;5029559;28;20200;-48
2022/07/09 01:48:44;;;;;;;5.17;3.37;;;23.80;44.80;;;;;;5028475;28;20197;-45
2022/07/09 01:51:12;;;;;;;3.73;3.00;;;23.70;44.60;;;;;;5030404;28;20626;-46
2022/07/09 01:53:39;;;;;;;3.30;2.97;;;23.70;44.80;;;;;;5028175;28;20259;-45
2022/07/09 01:56:09;;;;;;;4.30;3.00;;;23.70;44.70;;;;;;5031710;28;20440;-45
2022/07/09 01:58:35;;;;;;;3.63;3.00;;;23.80;44.70;;;;;;5027709;28;20487;-44
2022/07/09 02:01:02;;;;;;;3.40;3.10;;;23.70;44.60;;;;;;5031209;28;20491;-44
2022/07/09 02:03:27;;;;;;;4.13;3.30;;;23.70;44.60;;;;;;5029636;28;21237;-45
2022/07/09 02:05:53;;;;;;;3.60;2.90;;;23.80;44.70;;;;;;5018111;28;20463;-45
2022/07/09 02:08:19;;;;;;;4.40;2.97;;;23.80;44.60;;;;;;5031054;28;20251;-45
2022/07/09 02:10:45;;;;;;;3.30;2.80;;;23.80;44.60;;;;;;5028149;28;20196;-46
2022/07/09 02:13:12;;;;;;;3.23;2.93;;;23.70;44.40;;;;;;5027921;28;20202;-44
2022/07/09 02:15:37;;;;;;;3.83;3.27;;;23.70;44.60;;;;;;5027319;28;20483;-47
2022/07/09 02:18:04;;;;;;;3.30;3.00;;;23.50;44.90;;;;;;5025861;28;20558;-44
2022/07/09 02:20:30;;;;;;;4.57;3.27;;;23.50;45.00;;;;;;5028497;28;20189;-46
2022/07/09 02:22:56;;;;;;;3.53;3.00;;;23.60;45.10;;;;;;5030674;28;21009;-44
2022/07/09 02:25:22;;;;;;;3.90;2.27;;;23.60;45.00;;;;;;5028105;28;20331;-45
2022/07/09 02:27:47;;;;;;;4.53;2.90;;;23.50;44.90;;;;;;5027143;28;20205;-46
2022/07/09 02:30:13;;;;;;;6.17;3.20;;;23.30;45.50;;;;;;5025313;28;20820;-45
2022/07/09 02:32:39;;;;;;;3.60;2.60;;;22.90;45.90;;;;;;5013177;28;20196;-44
2022/07/09 02:35:05;;;;;;;4.67;2.60;;;22.90;46.40;;;;;;5031409;28;20280;-44
2022/07/09 02:37:32;;;;;;;3.70;2.90;;;22.80;46.40;;;;;;5022087;28;20443;-44
2022/07/09 02:39:57;;;;;;;4.40;2.50;;;22.90;46.30;;;;;;5033828;28;20467;-46
2022/07/09 02:42:23;;;;;;;5.07;2.60;;;22.90;46.50;;;;;;5031914;28;20792;-44
2022/07/09 02:44:49;;;;;;;3.53;2.50;;;23.00;46.30;;;;;;5031504;28;20835;-45
2022/07/09 02:47:15;;;;;;;2.70;2.47;;;23.00;46.10;;;;;;5028852;28;20201;-44
2022/07/09 02:49:41;;;;;;;3.03;2.83;;;23.10;45.90;;;;;;5030992;28;20198;-48
2022/07/09 02:52:06;;;;;;;5.50;3.13;;;23.10;46.00;;;;;;5026500;28;20485;-45
2022/07/09 02:54:33;;;;;;;4.93;2.90;;;23.20;45.70;;;;;;5031986;28;20221;-46
2022/07/09 02:56:59;;;;;;;3.47;3.20;;;23.20;45.60;;;;;;5029770;28;20564;-46
2022/07/09 02:59:25;;;;;;;3.67;2.40;;;23.20;45.50;;;;;;5030229;28;20490;-46
2022/07/09 03:01:51;;;;;;;3.20;3.00;;;23.20;45.70;;;;;;5030508;28;20443;-44
2022/07/09 03:04:17;;;;;;;3.90;2.63;;;23.10;45.50;;;;;;5031375;28;21288;-44
2022/07/09 03:06:43;;;;;;;2.60;2.40;;;23.20;45.70;;;;;;5025314;28;20480;-46
2022/07/09 03:09:08;;;;;;;3.60;2.40;;;23.10;45.80;;;;;;5022652;28;20252;-44
2022/07/09 03:11:34;;;;;;;3.10;2.50;;;23.20;45.80;;;;;;5021700;28;20215;-44
2022/07/09 03:14:00;;;;;;;3.50;2.67;;;23.20;45.70;;;;;;5029126;28;20181;-46
2022/07/09 03:16:25;;;;;;;4.00;2.40;;;23.20;45.60;;;;;;5030704;28;20640;-45
2022/07/09 03:18:51;;;;;;;2.80;2.50;;;23.30;45.60;;;;;;5028555;28;20240;-45
2022/07/09 03:21:17;;;;;;;6.27;2.50;;;23.30;45.50;;;;;;5029002;28;20221;-45
2022/07/09 03:23:42;;;;;;;2.83;2.53;;;23.30;45.30;;;;;;5023369;28;20244;-46
2022/07/09 03:26:08;;;;;;;2.70;2.50;;;23.30;45.40;;;;;;5023653;28;20219;-49
2022/07/09 03:28:34;;;;;;;2.93;2.50;;;23.30;45.60;;;;;;5024379;28;20186;-51
2022/07/09 03:31:00;;;;;;;3.23;2.60;;;23.20;45.30;;;;;;5025532;28;20189;-48
2022/07/09 03:33:26;;;;;;;3.30;2.73;;;23.20;45.50;;;;;;5039404;28;20458;-45
2022/07/09 03:35:54;;;;;;;2.80;2.40;;;23.20;45.60;;;;;;5033472;28;20444;-51
2022/07/09 03:38:20;;;;;;;4.63;2.50;;;23.20;45.60;;;;;;5022592;28;20233;-46
2022/07/09 03:40:46;;;;;;;3.80;2.50;;;23.20;45.60;;;;;;5026397;28;20451;-49
2022/07/09 03:43:11;;;;;;;3.20;2.90;;;23.20;45.50;;;;;;5020451;28;20219;-47
2022/07/09 03:45:37;;;;;;;3.63;2.80;;;23.20;45.40;;;;;;5029034;28;20608;-49
2022/07/09 03:48:03;;;;;;;2.60;2.37;;;23.20;45.50;;;;;;5030540;28;20568;-49
2022/07/09 03:50:28;;;;;;;2.77;2.50;;;23.20;45.50;;;;;;5026570;28;20676;-44
2022/07/09 03:52:54;;;;;;;3.03;2.83;;;23.20;45.60;;;;;;5030353;28;20444;-48
2022/07/09 03:55:20;;;;;;;2.40;2.20;;;23.20;45.50;;;;;;5033178;28;20631;-48
2022/07/09 03:57:45;;;;;;;2.40;2.20;;;23.20;45.30;;;;;;5027556;28;20284;-49
2022/07/09 04:00:11;;;;;;;3.93;2.73;;;23.20;45.30;;;;;;5030194;28;20231;-48
2022/07/09 04:02:37;;;;;;;3.10;2.80;;;23.30;45.30;;;;;;5027142;28;20917;-50
2022/07/09 04:05:03;;;;;;;2.77;2.53;;;23.30;45.10;;;;;;5027499;28;20575;-49
2022/07/09 04:07:28;;;;;;;3.10;2.80;;;23.30;45.20;;;;;;5032857;28;20217;-49
2022/07/09 04:09:54;;;;;;;3.87;3.23;;;23.30;45.30;;;;;;5027462;28;20707;-44
2022/07/09 04:12:21;;;;;;;4.50;3.00;;;23.10;44.40;;;;;;5029814;28;20197;-48
2022/07/09 04:14:47;;;;;;;11.37;5.90;;;22.80;44.80;;;;;;5031098;28;20228;-48
2022/07/09 04:17:12;;;;;;;12.07;8.60;;;22.50;45.30;;;;;;5016410;28;20449;-47
2022/07/09 04:19:38;;;;;;;6.57;5.33;;;22.20;46.00;;;;;;5020999;28;20877;-50
2022/07/09 04:22:04;;;;;;;3.67;3.40;;;21.60;47.30;;;;;;5022139;28;20898;-46
2022/07/09 04:24:29;;;;;;;3.20;2.90;;;21.00;48.60;;;;;;5027603;28;20275;-50
2022/07/09 04:26:55;;;;;;;4.70;3.57;;;20.40;50.10;;;;;;5025263;28;20518;-50
2022/07/09 04:29:21;;;;;;;5.00;3.30;;;20.00;51.10;;;;;;5026070;28;20255;-48
2022/07/09 04:31:46;;;;;;;3.60;3.17;;;19.40;51.80;;;;;;5031113;28;20225;-47
2022/07/09 04:34:12;;;;;;;3.97;3.57;;;19.20;52.60;;;;;;5026550;28;20633;-50
2022/07/09 04:36:37;;;;;;;3.90;3.50;;;18.80;54.40;;;;;;5036804;28;20215;-48
2022/07/09 04:39:04;;;;;;;4.60;3.60;;;18.50;55.30;;;;;;5027792;28;20225;-49
2022/07/09 04:41:29;;;;;;;3.80;3.30;;;18.20;56.00;;;;;;5027994;28;20193;-49
2022/07/09 04:43:55;;;;;;;6.30;3.33;;;18.00;56.70;;;;;;5029105;28;20454;-49
2022/07/09 04:46:26;;;;;;;4.40;3.67;;;18.00;56.90;;;;;;5033490;28;20607;-51
2022/07/09 04:48:52;;;;;;;3.93;3.40;;;18.20;56.80;;;;;;5026719;28;21010;-48
2022/07/09 04:51:18;;;;;;;4.17;3.87;;;18.10;56.70;;;;;;5025290;28;20448;-49
2022/07/09 04:53:43;;;;;;;4.70;4.30;;;18.00;57.40;;;;;;5026535;28;20197;-50
2022/07/09 04:56:09;;;;;;;4.90;3.57;;;18.00;57.30;;;;;;5021266;28;20271;-50
2022/07/09 04:58:36;;;;;;;4.10;3.80;;;17.80;57.70;;;;;;5029023;28;20208;-49
2022/07/09 05:01:03;;;;;;;3.83;3.50;;;18.00;57.50;;;;;;5023990;28;20215;-47
2022/07/09 05:03:28;;;;;;;3.90;3.60;;;18.10;57.20;;;;;;5025191;28;20444;-50
2022/07/09 05:05:54;;;;;;;8.03;4.13;;;18.20;56.90;;;;;;5018052;28;20555;-50
2022/07/09 05:08:19;;;;;;;3.87;3.57;;;18.30;56.60;;;;;;5024251;28;20220;-48
2022/07/09 05:10:45;;;;;;;8.70;3.43;;;18.30;56.70;;;;;;5024436;28;20658;-48
2022/07/09 05:13:11;;;;;;;6.53;3.47;;;18.40;58.60;;;;;;5021597;28;20700;-50
2022/07/09 05:15:37;;;;;;;8.03;3.33;;;18.70;57.80;;;;;;5021920;28;20244;-49
2022/07/09 05:18:03;;;;;;;6.80;3.67;;;19.10;56.30;;;;;;5028221;28;20189;-49
2022/07/09 05:20:28;;;;;;;3.23;2.93;;;19.50;54.60;;;;;;5020668;28;20194;-47
2022/07/09 05:22:54;;;;;;;4.63;3.07;;;19.80;53.80;;;;;;5024738;28;20478;-48
2022/07/09 05:25:20;;;;;;;5.03;3.97;;;20.20;52.80;;;;;;5025272;28;20207;-48
2022/07/09 05:27:48;;;;;;;6.77;3.13;;;20.50;52.60;;;;;;5023270;28;20200;-50
2022/07/09 05:30:14;;;;;;;3.53;3.17;;;20.70;53.00;;;;;;5026420;28;20197;-51
2022/07/09 05:32:41;;;;;;;6.63;3.73;;;20.80;51.90;;;;;;5023782;28;20459;-47
2022/07/09 05:35:07;;;;;;;12.13;3.47;;;20.80;52.30;;;;;;5021122;28;22742;-51
2022/07/09 05:37:33;;;;;;;4.23;3.83;;;20.80;51.90;;;;;;5025082;28;20444;-51
2022/07/09 05:40:01;;;;;;;3.27;2.97;;;20.80;51.30;;;;;;5025175;28;20567;-47
2022/07/09 05:42:27;;;;;;;3.63;3.33;;;20.90;51.30;;;;;;5018537;28;20437;-51
2022/07/09 05:44:52;;;;;;;2.83;2.53;;;21.10;50.90;;;;;;5022554;28;20529;-51
2022/07/09 05:47:18;;;;;;;3.90;3.30;;;21.20;50.80;;;;;;5029699;28;20921;-52
2022/07/09 05:49:43;;;;;;;4.23;2.50;;;20.80;50.90;;;;;;5028681;28;20224;-50
2022/07/09 05:52:09;;;;;;;3.50;2.87;;;20.80;51.60;;;;;;5027814;28;20200;-50
2022/07/09 05:54:36;;;;;;;3.33;2.50;;;21.00;51.00;;;;;;5028502;28;20227;-50
2022/07/09 05:57:01;;;;;;;4.33;2.90;;;21.10;51.10;;;;;;5028244;28;20210;-47
2022/07/09 05:59:27;;;;;;;3.63;2.87;;;20.90;50.80;;;;;;5025642;28;20439;-47
2022/07/09 06:01:53;;;;;;;3.17;2.87;;;20.80;51.20;;;;;;5024776;28;20649;-50
2022/07/09 06:04:18;;;;;;;4.00;2.90;;;20.80;51.70;;;;;;5023914;28;20255;-48
2022/07/09 06:06:44;;;;;;;4.00;3.20;;;21.10;51.40;;;;;;5028568;28;20637;-46
2022/07/09 06:09:10;;;;;;;4.57;3.23;;;21.00;50.90;;;;;;5032323;28;20253;-48
2022/07/09 06:11:36;;;;;;;5.10;2.70;;;21.00;51.30;;;;;;5032563;28;20447;-50
2022/07/09 06:14:01;;;;;;;4.90;3.60;;;21.00;51.00;;;;;;5028162;28;20216;-48
2022/07/09 06:16:27;;;;;;;5.60;3.27;;;20.90;51.30;;;;;;5026084;28;20201;-46
2022/07/09 06:18:52;;;;;;;5.37;3.23;;;20.70;51.60;;;;;;5032122;28;20260;-47
2022/07/09 06:21:18;;;;;;;5.10;3.00;;;20.70;51.60;;;;;;5030905;28;20203;-47
2022/07/09 06:23:44;;;;;;;2.73;2.53;;;20.60;52.10;;;;;;5028619;28;20189;-50
2022/07/09 06:26:10;;;;;;;4.33;2.60;;;20.90;51.10;;;;;;5030686;28;20494;-47
2022/07/09 06:28:37;;;;;;;3.87;3.17;;;21.10;50.70;;;;;;5026589;28;20221;-46
2022/07/09 06:31:03;;;;;;;4.57;2.60;;;21.50;50.00;;;;;;5023685;28;20240;-47
2022/07/09 06:33:29;;;;;;;4.73;2.57;;;21.70;49.50;;;;;;5027207;28;20522;-50
2022/07/09 06:35:54;;;;;;;6.03;3.20;;;21.90;49.00;;;;;;5030033;28;20296;-48
2022/07/09 06:38:20;;;;;;;4.80;3.20;;;22.00;48.70;;;;;;5032705;28;20593;-48
2022/07/09 06:40:45;;;;;;;3.63;2.77;;;22.00;48.50;;;;;;5032625;28;20185;-48
2022/07/09 06:43:12;;;;;;;4.10;2.53;;;22.10;48.60;;;;;;5028931;28;20613;-49
2022/07/09 06:45:38;;;;;;;3.20;2.93;;;22.30;48.50;;;;;;5025075;28;20189;-47
2022/07/09 06:48:04;;;;;;;4.30;2.70;;;22.50;48.20;;;;;;5029182;28;20538;-47
2022/07/09 06:50:29;;;;;;;4.90;3.10;;;22.60;48.40;;;;;;5021645;28;20440;-50
2022/07/09 06:52:55;;;;;;;6.13;3.00;;;22.80;47.90;;;;;;5031148;28;20219;-47
2022/07/09 06:55:21;;;;;;;3.10;2.73;;;22.80;47.70;;;;;;5041172;28;20559;-46
2022/07/09 06:57:47;;;;;;;3.53;2.60;;;22.90;47.50;;;;;;5018409;28;20201;-48
2022/07/09 07:00:13;;;;;;;3.87;2.93;;;23.00;47.40;;;;;;5023784;28;20429;-49
2022/07/09 07:02:39;;;;;;;4.13;2.77;;;23.10;47.20;;;;;;5027368;28;20596;-50
2022/07/09 07:05:05;;;;;;;4.33;2.83;;;23.20;47.30;;;;;;5013201;28;20440;-46
2022/07/09 07:07:31;;;;;;;3.43;2.90;;;23.30;47.10;;;;;;5012517;28;20206;-46
2022/07/09 07:09:56;;;;;;;3.37;2.97;;;23.30;46.80;;;;;;5017791;28;20609;-48
2022/07/09 07:12:22;;;;;;;3.03;2.70;;;23.50;46.60;;;;;;5031573;28;20220;-50
2022/07/09 07:14:48;;;;;;;2.60;2.40;;;23.60;46.10;;;;;;5031033;28;20339;-46
2022/07/09 07:17:13;;;;;;;3.37;2.70;;;23.70;46.10;;;;;;5032157;28;20587;-45
2022/07/09 07:19:39;;;;;;;3.77;2.80;;;23.80;46.30;;;;;;5031876;28;20193;-47
2022/07/09 07:22:05;;;;;;;3.50;3.17;;;23.90;46.40;;;;;;5031573;28;20201;-46
2022/07/09 07:24:30;;;;;;;4.23;2.90;;;24.00;47.10;;;;;;5029951;28;20202;-50
2022/07/09 07:26:57;;;;;;;4.13;3.00;;;23.80;45.60;;;;;;5031785;28;20232;-46
2022/07/09 07:29:23;;;;;;;5.17;2.50;;;23.70;46.20;;;;;;5031574;28;20241;-46
2022/07/09 07:31:49;;;;;;;3.40;2.40;;;24.00;45.80;;;;;;5032080;28;20428;-46
2022/07/09 07:34:15;;;;;;;3.77;2.60;;;24.30;45.30;;;;;;5029623;28;20847;-47
2022/07/09 07:36:41;;;;;;;4.10;2.77;;;24.50;45.10;;;;;;5016980;28;20456;-48
2022/07/09 07:39:07;;;;;;;3.93;2.70;;;24.70;44.10;;;;;;5011730;28;20429;-47
2022/07/09 07:41:33;;;;;;;5.73;3.00;;;24.80;43.90;;;;;;5012099;28;20194;-47
2022/07/09 07:43:58;;;;;;;3.67;3.00;;;24.90;44.50;;;;;;5011916;28;20231;-46
2022/07/09 07:46:24;;;;;;;4.93;2.83;;;25.00;44.20;;;;;;5028094;28;20232;-46
2022/07/09 07:48:50;;;;;;;7.10;2.67;;;25.20;44.20;;;;;;5031447;28;20225;-45
2022/07/09 07:51:16;;;;;;;3.83;2.47;;;25.40;44.10;;;;;;5032020;28;20212;-46
2022/07/09 07:53:42;;;;;;;4.33;2.90;;;25.40;43.80;;;;;;5029907;28;20420;-48
2022/07/09 07:56:08;;;;;;;3.77;2.47;;;25.50;43.00;;;;;;5030047;28;20522;-48
2022/07/09 07:58:35;;;;;;;3.57;2.63;;;25.10;43.80;;;;;;5031522;28;20432;-47
2022/07/09 08:01:01;;;;;;;3.17;2.60;;;25.20;43.70;;;;;;5031512;28;20538;-46
2022/07/09 08:03:26;;;;;;;6.03;2.50;;;25.40;42.90;;;;;;5030929;28;20472;-46
2022/07/09 08:05:52;;;;;;;3.63;2.57;;;25.60;42.40;;;;;;5030413;28;20712;-48
2022/07/09 08:08:18;;;;;;;3.03;2.50;;;25.70;42.00;;;;;;5022523;28;20230;-47
2022/07/09 08:10:45;;;;;;;3.80;2.60;;;25.90;42.30;;;;;;5023234;28;20204;-50
2022/07/09 08:13:12;;;;;;;5.30;2.80;;;26.00;41.90;;;;;;5030819;28;20193;-47
2022/07/09 08:15:38;;;;;;;4.57;2.83;;;26.10;41.80;;;;;;5031333;28;20464;-47
2022/07/09 08:18:04;;;;;;;5.27;3.10;;;26.00;41.80;;;;;;5029293;28;20448;-46
2022/07/09 08:20:30;;;;;;;6.17;2.50;;;26.20;41.70;;;;;;5029542;28;20424;-47
2022/07/09 08:22:55;;;;;;;2.70;2.40;;;26.50;41.60;;;;;;5030588;28;20757;-49
2022/07/09 08:25:21;;;;;;;5.73;2.43;;;26.70;41.60;;;;;;5031428;28;20197;-46
2022/07/09 08:27:49;;;;;;;4.27;2.70;;;26.80;41.30;;;;;;5029770;28;20193;-46
2022/07/09 08:30:15;;;;;;;3.90;2.60;;;26.90;41.00;;;;;;5030792;28;20562;-48
2022/07/09 08:32:40;;;;;;;3.37;2.67;;;27.10;41.00;;;;;;5030002;28;20435;-46
2022/07/09 08:35:07;;;;;;;2.40;2.10;;;27.20;40.50;;;;;;5031163;28;20200;-46
2022/07/09 08:37:32;;;;;;;5.43;2.60;;;27.30;40.90;;;;;;5029607;28;20193;-48
2022/07/09 08:40:00;;;;;;;4.60;2.40;;;27.40;40.40;;;;;;5030998;28;20515;-52
2022/07/09 08:42:25;;;;;;;2.20;2.03;;;27.50;40.00;;;;;;5030247;28;20212;-51
2022/07/09 08:44:54;;;;;;;2.57;2.00;;;27.60;40.00;;;;;;5030782;28;20424;-48
2022/07/09 08:47:21;;;;;;;3.70;2.30;;;27.70;40.00;;;;;;5028842;28;20201;-51
2022/07/09 08:49:47;;;;;;;3.33;2.03;;;27.80;39.90;;;;;;5029139;28;20484;-48
2022/07/09 08:52:15;;;;;;;1.87;1.73;;;27.90;39.30;;;;;;5030028;28;20428;-50
2022/07/09 08:54:42;;;;;;;3.27;2.30;;;28.00;39.00;;;;;;5030893;28;20424;-46
2022/07/09 08:57:08;;;;;;;2.33;2.13;;;27.90;39.30;;;;;;5030096;28;20470;-49
2022/07/09 08:59:34;;;;;;;3.90;1.87;;;28.00;39.00;;;;;;5028421;28;20436;-47
2022/07/09 09:02:08;;;;;;;2.43;2.07;;;28.00;38.90;;;;;;5030386;28;20204;-48
2022/07/09 09:04:39;;;;;;;2.40;1.50;;;28.20;39.40;;;;;;5030552;28;20622;-48
2022/07/09 09:07:16;;;;;;;2.50;1.50;;;28.20;38.70;;;;;;5030300;28;20482;-47
2022/07/09 09:09:42;;;;;;;2.80;1.27;;;28.30;38.30;;;;;;5029555;28;20570;-50
2022/07/09 09:12:08;;;;;;;1.87;1.43;;;28.40;37.40;;;;;;5029805;28;20511;-50
2022/07/09 09:14:36;;;;;;;1.93;1.47;;;28.50;37.20;;;;;;5028955;28;20521;-51
2022/07/09 09:17:18;;;;;;;1.50;1.40;;;28.50;37.60;;;;;;5030306;28;20858;-49
2022/07/09 09:19:46;;;;;;;3.03;1.50;;;28.60;38.00;;;;;;5029018;28;20452;-48
2022/07/09 09:22:16;;;;;;;1.50;1.30;;;28.70;37.60;;;;;;5011239;28;20445;-47
2022/07/09 09:24:42;;;;;;;2.23;1.60;;;28.60;38.00;;;;;;5010670;28;20429;-47
2022/07/09 09:27:27;;;;;;;1.90;1.47;;;28.90;38.20;;;;;;5010053;28;20433;-50
2022/07/09 09:30:00;;;;;;;4.70;1.10;;;29.10;38.30;;;;;;5010756;28;20499;-47
2022/07/09 09:32:26;;;;;;;2.03;1.10;;;29.40;36.40;;;;;;5028214;28;20456;-44
2022/07/09 09:34:51;;;;;;;3.77;1.40;;;29.50;35.90;;;;;;5030348;28;20454;-49
2022/07/09 09:37:28;;;;;;;5.20;1.30;;;29.70;35.70;;;;;;5028261;28;20229;-48
2022/07/09 09:39:54;;;;;;;2.50;1.50;;;29.90;36.10;;;;;;5029637;28;20205;-47
2022/07/09 09:42:23;;;;;;;3.53;1.53;;;29.80;36.00;;;;;;5025390;28;20451;-44
2022/07/09 09:44:52;;;;;;;2.10;1.83;;;29.90;35.80;;;;;;5017954;28;20515;-49
2022/07/09 09:47:22;;;;;;;4.50;1.67;;;30.10;35.50;;;;;;5013769;28;20428;-47
2022/07/09 09:49:49;;;;;;;1.63;1.37;;;30.20;35.40;;;;;;5014309;28;20560;-49
2022/07/09 09:52:15;;;;;;;1.67;1.20;;;30.30;35.20;;;;;;5028724;28;20446;-47
2022/07/09 09:54:47;;;;;;;2.60;1.60;;;30.40;34.70;;;;;;5030174;28;20439;-45
2022/07/09 09:57:19;;;;;;;3.03;1.57;;;30.50;34.60;;;;;;5049023;28;21129;-46
2022/07/09 09:59:45;;;;;;;3.20;1.70;;;30.60;35.00;;;;;;5033734;28;20482;-47
2022/07/09 10:02:12;;;;;;;5.07;1.87;;;30.50;34.40;;;;;;5033228;28;20522;-46
2022/07/09 10:04:39;;;;;;;3.47;1.70;;;30.40;33.70;;;;;;5032216;28;20451;-48
2022/07/09 10:07:06;;;;;;;3.13;2.17;;;30.30;34.40;;;;;;5032116;28;20778;-49
2022/07/09 10:09:32;;;;;;;3.83;1.93;;;30.30;33.80;;;;;;5033336;28;20491;-47
2022/07/09 10:12:04;;;;;;;2.00;1.60;;;30.40;33.90;;;;;;5033692;28;20438;-47
2022/07/09 10:14:35;;;;;;;2.60;1.70;;;30.60;34.10;;;;;;5033134;28;20212;-47
2022/07/09 10:17:42;;;;;;;1.70;1.40;;;30.80;33.80;;;;;;5018902;28;20976;-48
2022/07/09 10:20:10;;;;;;;3.63;1.77;;;30.80;32.90;;;;;;5033732;28;20463;-49
2022/07/09 10:22:40;;;;;;;2.13;1.50;;;31.20;33.90;;;;;;5033046;28;20431;-50
2022/07/09 10:25:08;;;;;;;2.03;1.53;;;31.30;31.90;;;;;;5033648;28;20424;-46
2022/07/09 10:27:50;;;;;;;2.67;1.47;;;31.30;31.50;;;;;;5033328;28;20826;-50
2022/07/09 10:30:30;;;;;;;2.20;1.50;;;31.30;31.60;;;;;;5029973;28;20444;-48
2022/07/09 10:33:07;;;;;;;1.77;1.40;;;31.30;31.50;;;;;;5020809;28;20436;-49
2022/07/09 10:36:09;;;;;;;5.03;1.87;;;31.30;31.00;;;;;;5012532;28;20460;-49
2022/07/09 10:38:38;;;;;;;2.00;1.40;;;31.50;31.70;;;;;;5005122;28;20451;-46
2022/07/09 10:41:04;;;;;;;3.40;1.53;;;31.70;31.10;;;;;;5041747;28;20452;-47
2022/07/09 10:43:47;;;;;;;1.40;1.30;;;31.90;30.60;;;;;;5042072;28;20773;-49
2022/07/09 10:46:17;;;;;;;2.73;1.80;;;32.20;30.30;;;;;;5013519;28;20466;-51
2022/07/09 10:48:45;;;;;;;4.07;1.70;;;32.40;30.10;;;;;;5013358;28;20492;-45
2022/07/09 10:51:22;;;;;;;1.60;1.30;;;32.50;29.80;;;;;;5024019;28;20447;-45
2022/07/09 10:53:48;;;;;;;2.30;1.30;;;32.70;29.60;;;;;;5031721;28;20443;-45
2022/07/09 10:56:21;;;;;;;1.53;1.43;;;32.80;29.50;;;;;;5033057;28;20435;-45
2022/07/09 10:58:48;;;;;;;1.50;1.40;;;32.80;29.50;;;;;;5032596;28;20440;-49
2022/07/09 11:01:24;;;;;;;3.80;1.70;;;32.80;28.60;;;;;;5030025;28;20440;-47
2022/07/09 11:03:50;;;;;;;2.83;1.60;;;32.90;29.60;;;;;;5032537;28;20788;-44
2022/07/09 11:06:17;;;;;;;2.13;1.60;;;32.90;29.20;;;;;;5025760;28;20456;-46
2022/07/09 11:08:42;;;;;;;7.37;1.73;;;33.20;29.60;;;;;;5027365;28;20527;-46
2022/07/09 11:11:08;;;;;;;2.50;1.60;;;33.50;29.60;;;;;;5029369;28;20460;-47
2022/07/09 11:13:34;;;;;;;2.70;1.93;;;33.70;29.00;;;;;;5022733;28;20247;-45
2022/07/09 11:16:00;;;;;;;1.90;1.50;;;33.80;29.50;;;;;;5028378;28;20193;-44
2022/07/09 11:18:28;;;;;;;1.67;1.57;;;33.90;29.50;;;;;;5026123;28;20661;-48
2022/07/09 11:20:53;;;;;;;1.57;1.47;;;34.00;29.60;;;;;;5030851;28;20452;-45
2022/07/09 11:23:19;;;;;;;1.73;1.50;;;34.00;29.80;;;;;;5029073;28;20460;-45
2022/07/09 11:25:46;;;;;;;2.90;1.90;;;33.90;30.00;;;;;;5028691;28;20272;-45
2022/07/09 11:28:28;;;;;;;3.30;1.70;;;33.70;29.80;;;;;;5030831;28;20213;-45
2022/07/09 11:31:04;;;;;;;4.13;1.73;;;33.70;29.80;;;;;;5028085;28;20436;-46
2022/07/09 11:36:16;;;;;;;1.70;1.60;;;33.80;29.00;;;;;;5029226;28;20942;-47
2022/07/09 11:38:48;;;;;;;4.00;3.30;;;33.80;28.30;;;;;;5028191;28;20819;-47
2022/07/09 11:41:14;;;;;;;2.70;2.50;;;33.80;28.30;;;;;;5030918;28;20684;-48
2022/07/09 11:43:46;;;;;;;1.60;1.50;;;33.90;28.60;;;;;;5029154;28;20436;-47
2022/07/09 11:46:19;;;;;;;2.37;1.50;;;34.10;27.80;;;;;;5030069;28;20669;-46
2022/07/09 11:48:49;;;;;;;2.90;1.40;;;34.20;28.40;;;;;;5029455;28;20483;-47
2022/07/09 11:51:32;;;;;;;1.87;1.53;;;34.30;28.30;;;;;;5030380;28;21009;-48
2022/07/09 11:53:58;;;;;;;1.80;1.70;;;34.20;27.80;;;;;;5028604;28;20478;-48
2022/07/09 11:56:24;;;;;;;4.77;1.80;;;34.20;28.40;;;;;;5024407;28;20802;-46
2022/07/09 11:58:50;;;;;;;8.40;2.13;;;34.20;27.80;;;;;;5028060;28;20466;-44
2022/07/09 12:01:16;;;;;;;3.80;1.87;;;34.20;27.40;;;;;;5026302;28;20233;-46
2022/07/09 12:03:48;;;;;;;8.77;2.10;;;34.20;28.30;;;;;;5027467;28;20483;-46
2022/07/09 12:06:14;;;;;;;4.30;2.33;;;34.10;28.60;;;;;;5026540;28;20196;-48
2022/07/09 12:08:40;;;;;;;6.73;2.10;;;34.10;28.90;;;;;;5028215;28;20491;-47
2022/07/09 12:11:05;;;;;;;3.50;1.80;;;34.00;28.90;;;;;;5027829;28;20448;-45
2022/07/09 12:13:32;;;;;;;2.73;1.60;;;33.90;28.90;;;;;;5026882;28;20271;-48
2022/07/09 12:15:58;;;;;;;1.47;1.37;;;33.80;28.30;;;;;;5024756;28;20441;-46
2022/07/09 12:18:24;;;;;;;2.67;1.50;;;33.50;28.60;;;;;;5027944;28;20197;-49
2022/07/09 12:20:49;;;;;;;3.43;1.53;;;33.40;28.80;;;;;;5030866;28;20193;-49
2022/07/09 12:23:15;;;;;;;1.47;1.37;;;33.50;29.50;;;;;;5027419;28;20447;-45
2022/07/09 12:25:41;;;;;;;2.93;1.77;;;33.60;29.80;;;;;;5025750;28;20210;-46
2022/07/09 12:28:07;;;;;;;3.77;1.40;;;33.60;29.50;;;;;;5024993;28;20193;-48
2022/07/09 12:30:32;;;;;;;1.93;1.83;;;33.80;29.30;;;;;;5027118;28;20456;-46
2022/07/09 12:32:58;;;;;;;1.73;1.20;;;33.90;28.80;;;;;;5021141;28;20224;-46
2022/07/09 12:35:25;;;;;;;1.60;1.50;;;34.10;27.90;;;;;;5027208;28;20189;-45
2022/07/09 12:37:51;;;;;;;3.63;1.63;;;34.20;28.30;;;;;;5032290;28;20194;-45
2022/07/09 12:40:17;;;;;;;3.23;1.70;;;34.20;27.90;;;;;;5030969;28;20454;-45
2022/07/09 12:42:43;;;;;;;1.40;1.30;;;34.20;27.60;;;;;;5013487;28;20473;-45
2022/07/09 12:45:09;;;;;;;2.83;1.43;;;34.30;28.80;;;;;;5027755;28;20216;-47
2022/07/09 12:47:34;;;;;;;4.20;1.70;;;34.40;28.30;;;;;;5021967;28;20652;-50